Saab 340: The Final Chapter...

sorrygottarunway

Well-Known Member
I miss BGM, its my home town :(
Not today...

KBGM 101643Z 31008G19KT 3/4SM -SN BR FEW008 BKN018 OVC029 01/M02 A2997 RMK AO2 SFC VIS 1 1/2 SNB19 P0000

Need a little vacation from Binghamton... Last three days in BGM went like this:

Friday: Performance with Binghamton Philharmonic, evening...
Saturday: Tri-Cities Opera, Rigoletto, evening performance
Sunday: 2x Performance Mendelssohn's Psalm 95 at Vestal Methodist 8am!!!, followed by Ithaca Community Orchestra Fall performance...

I'm ROASTED from the weekend.
 

flygvapnet

Well-Known Member
counsels is ok, but now tonys pizza in endicott, now thats pizza. and we can't for get about the good ole oakdale mall
 
Top